sensor_id;sensor_type;location;lat;lon;timestamp;pressure;altitude;pressure_sealevel;temperature;humidity
32197;BME280;18697;42.770;23.400;2023-07-29T00:01:50;95393.59;;;25.41;44.52
32197;BME280;18697;42.770;23.400;2023-07-29T00:04:16;95392.09;;;25.40;44.76
32197;BME280;18697;42.770;23.400;2023-07-29T00:06:42;95396.25;;;25.39;44.55
32197;BME280;18697;42.770;23.400;2023-07-29T00:09:07;95397.38;;;25.36;44.55
32197;BME280;18697;42.770;23.400;2023-07-29T00:11:32;95399.09;;;25.39;44.69
32197;BME280;18697;42.770;23.400;2023-07-29T00:14:00;95404.22;;;25.33;44.80
32197;BME280;18697;42.770;23.400;2023-07-29T00:16:26;95401.94;;;25.31;44.07
32197;BME280;18697;42.770;23.400;2023-07-29T00:18:51;95407.25;;;25.35;43.99
32197;BME280;18697;42.770;23.400;2023-07-29T00:21:17;95403.25;;;25.30;43.94
32197;BME280;18697;42.770;23.400;2023-07-29T00:23:42;95403.84;;;25.21;43.94
32197;BME280;18697;42.770;23.400;2023-07-29T00:26:07;95407.47;;;25.21;44.08
32197;BME280;18697;42.770;23.400;2023-07-29T00:28:33;95387.00;;;25.15;44.30
32197;BME280;18697;42.770;23.400;2023-07-29T00:30:58;95392.88;;;25.17;43.84
32197;BME280;18697;42.770;23.400;2023-07-29T00:33:24;95391.53;;;25.11;44.03
32197;BME280;18697;42.770;23.400;2023-07-29T00:35:49;95396.84;;;25.14;44.16
32197;BME280;18697;42.770;23.400;2023-07-29T00:38:15;95388.69;;;25.11;44.26
32197;BME280;18697;42.770;23.400;2023-07-29T00:40:40;95391.53;;;25.11;44.20
32197;BME280;18697;42.770;23.400;2023-07-29T00:43:06;95396.09;;;25.14;44.29
32197;BME280;18697;42.770;23.400;2023-07-29T00:45:32;95396.09;;;25.14;44.04
32197;BME280;18697;42.770;23.400;2023-07-29T00:47:59;95385.28;;;25.12;44.16
32197;BME280;18697;42.770;23.400;2023-07-29T00:50:25;95389.06;;;25.15;43.87
32197;BME280;18697;42.770;23.400;2023-07-29T00:52:53;95385.28;;;25.12;44.19
32197;BME280;18697;42.770;23.400;2023-07-29T00:55:19;95385.66;;;25.16;44.35
32197;BME280;18697;42.770;23.400;2023-07-29T00:57:45;95380.16;;;25.11;44.08
32197;BME280;18697;42.770;23.400;2023-07-29T01:00:14;95392.69;;;25.15;43.90
32197;BME280;18697;42.770;23.400;2023-07-29T01:02:39;95389.06;;;25.07;44.23
32197;BME280;18697;42.770;23.400;2023-07-29T01:05:05;95387.00;;;25.08;44.26
32197;BME280;18697;42.770;23.400;2023-07-29T01:13:23;95385.78;;;24.88;44.55
32197;BME280;18697;42.770;23.400;2023-07-29T01:15:53;95385.78;;;24.88;44.68
32197;BME280;18697;42.770;23.400;2023-07-29T01:18:27;95384.06;;;24.77;45.41
32197;BME280;18697;42.770;23.400;2023-07-29T01:20:54;95391.06;;;24.76;45.21
32197;BME280;18697;42.770;23.400;2023-07-29T01:23:29;95389.53;;;24.68;45.48
32197;BME280;18697;42.770;23.400;2023-07-29T01:25:54;95386.13;;;24.62;45.70
32197;BME280;18697;42.770;23.400;2023-07-29T01:28:20;95386.84;;;24.54;46.06
32197;BME280;18697;42.770;23.400;2023-07-29T01:30:49;95387.25;;;24.58;46.11
32197;BME280;18697;42.770;23.400;2023-07-29T01:33:22;95390.66;;;24.49;45.94
32197;BME280;18697;42.770;23.400;2023-07-29T01:36:05;95391.78;;;24.54;46.22
32197;BME280;18697;42.770;23.400;2023-07-29T01:38:35;95390.09;;;24.58;46.27
32197;BME280;18697;42.770;23.400;2023-07-29T01:41:02;95391.78;;;24.46;46.33
32197;BME280;18697;42.770;23.400;2023-07-29T01:43:29;95386.50;;;24.50;46.69
32197;BME280;18697;42.770;23.400;2023-07-29T01:45:55;95384.97;;;24.49;46.39
32197;BME280;18697;42.770;23.400;2023-07-29T01:48:21;95368.69;;;24.42;46.55
32197;BME280;18697;42.770;23.400;2023-07-29T01:50:47;95384.41;;;24.51;46.55
32197;BME280;18697;42.770;23.400;2023-07-29T01:53:12;95386.47;;;24.58;46.24
32197;BME280;18697;42.770;23.400;2023-07-29T01:55:38;95390.09;;;24.58;46.31
32197;BME280;18697;42.770;23.400;2023-07-29T01:58:04;95385.72;;;24.57;46.07
32197;BME280;18697;42.770;23.400;2023-07-29T02:00:29;95389.69;;;24.54;46.20
32197;BME280;18697;42.770;23.400;2023-07-29T02:02:55;95390.25;;;24.45;46.25
32197;BME280;18697;42.770;23.400;2023-07-29T02:05:20;95402.38;;;24.46;46.20
32197;BME280;18697;42.770;23.400;2023-07-29T02:07:45;95396.31;;;24.49;46.31
32197;BME280;18697;42.770;23.400;2023-07-29T02:10:11;95388.94;;;24.46;46.22
32197;BME280;18697;42.770;23.400;2023-07-29T02:12:36;95397.25;;;24.44;45.81
32197;BME280;18697;42.770;23.400;2023-07-29T02:15:02;95392.72;;;24.49;45.71
32197;BME280;18697;42.770;23.400;2023-07-29T02:17:28;95400.84;;;24.52;45.51
32197;BME280;18697;42.770;23.400;2023-07-29T02:19:53;95393.28;;;24.55;45.68
32197;BME280;18697;42.770;23.400;2023-07-29T02:22:19;95397.44;;;24.54;45.57
32197;BME280;18697;42.770;23.400;2023-07-29T02:24:44;95405.00;;;24.51;45.24
32197;BME280;18697;42.770;23.400;2023-07-29T02:27:10;95402.00;;;24.49;45.42
32197;BME280;18697;42.770;23.400;2023-07-29T02:29:36;95397.84;;;24.50;45.46
32197;BME280;18697;42.770;23.400;2023-07-29T02:32:02;95395.94;;;24.53;45.44
32197;BME280;18697;42.770;23.400;2023-07-29T02:34:28;95405.22;;;24.53;45.13
32197;BME280;18697;42.770;23.400;2023-07-29T02:36:53;95395.94;;;24.45;45.21
32197;BME280;18697;42.770;23.400;2023-07-29T02:39:18;95399.94;;;24.50;45.23
32197;BME280;18697;42.770;23.400;2023-07-29T02:41:44;95401.41;;;24.43;45.23
32197;BME280;18697;42.770;23.400;2023-07-29T02:44:09;95404.66;;;24.47;44.92
32197;BME280;18697;42.770;23.400;2023-07-29T02:46:34;95409.53;;;24.39;44.80
32197;BME280;18697;42.770;23.400;2023-07-29T02:49:01;95413.50;;;24.36;45.02
32197;BME280;18697;42.770;23.400;2023-07-29T02:51:27;95406.50;;;24.37;45.07
32197;BME280;18697;42.770;23.400;2023-07-29T02:53:52;95403.66;;;24.37;44.86
32197;BME280;18697;42.770;23.400;2023-07-29T02:56:18;95406.31;;;24.35;44.65
32197;BME280;18697;42.770;23.400;2023-07-29T02:58:43;95407.91;;;24.23;44.91
32197;BME280;18697;42.770;23.400;2023-07-29T03:01:10;95400.53;;;24.20;44.96
32197;BME280;18697;42.770;23.400;2023-07-29T03:03:35;95413.19;;;24.19;44.76
32197;BME280;18697;42.770;23.400;2023-07-29T03:06:06;95403.38;;;24.20;44.73
32197;BME280;18697;42.770;23.400;2023-07-29T03:08:31;95414.53;;;24.18;44.87
32197;BME280;18697;42.770;23.400;2023-07-29T03:10:57;95424.94;;;24.23;44.80
32197;BME280;18697;42.770;23.400;2023-07-29T03:13:23;95420.78;;;24.24;44.87
32197;BME280;18697;42.770;23.400;2023-07-29T03:15:48;95426.81;;;24.20;44.69
32197;BME280;18697;42.770;23.400;2023-07-29T03:18:14;95427.38;;;24.19;44.77
32197;BME280;18697;42.770;23.400;2023-07-29T03:20:40;95420.19;;;24.18;44.83
32197;BME280;18697;42.770;23.400;2023-07-29T03:23:05;95417.72;;;24.14;44.74
32197;BME280;18697;42.770;23.400;2023-07-29T03:25:31;95423.94;;;24.13;44.64
32197;BME280;18697;42.770;23.400;2023-07-29T03:27:56;95411.25;;;24.06;44.56
32197;BME280;18697;42.770;23.400;2023-07-29T03:30:22;95418.59;;;24.02;44.60
32197;BME280;18697;42.770;23.400;2023-07-29T03:32:48;95425.44;;;24.06;45.03
32197;BME280;18697;42.770;23.400;2023-07-29T03:35:14;95425.44;;;24.06;44.62
32197;BME280;18697;42.770;23.400;2023-07-29T03:37:40;95426.94;;;24.07;44.77
32197;BME280;18697;42.770;23.400;2023-07-29T03:40:06;95438.13;;;24.13;44.73
32197;BME280;18697;42.770;23.400;2023-07-29T03:42:32;95432.47;;;24.13;44.76
32197;BME280;18697;42.770;23.400;2023-07-29T03:44:57;95425.44;;;24.06;44.78
32197;BME280;18697;42.770;23.400;2023-07-29T03:47:23;95429.63;;;24.13;44.74
32197;BME280;18697;42.770;23.400;2023-07-29T03:49:48;95422.63;;;24.14;44.63
32197;BME280;18697;42.770;23.400;2023-07-29T03:52:14;95420.56;;;24.14;44.74
32197;BME280;18697;42.770;23.400;2023-07-29T03:54:39;95426.47;;;24.24;44.74
32197;BME280;18697;42.770;23.400;2023-07-29T03:57:05;95424.75;;;24.21;44.41
32197;BME280;18697;42.770;23.400;2023-07-29T03:59:30;95427.66;;;24.00;45.03
32197;BME280;18697;42.770;23.400;2023-07-29T04:01:56;95420.31;;;24.05;44.86
32197;BME280;18697;42.770;23.400;2023-07-29T04:04:21;95420.31;;;24.05;44.77
32197;BME280;18697;42.770;23.400;2023-07-29T04:06:46;95414.66;;;24.05;45.03
32197;BME280;18697;42.770;23.400;2023-07-29T04:09:12;95422.34;;;23.97;45.26
32197;BME280;18697;42.770;23.400;2023-07-29T04:11:38;95424.03;;;23.92;45.10
32197;BME280;18697;42.770;23.400;2023-07-29T04:14:03;95423.66;;;23.96;45.46
32197;BME280;18697;42.770;23.400;2023-07-29T04:16:29;95419.09;;;23.92;45.46
32197;BME280;18697;42.770;23.400;2023-07-29T04:18:54;95427.72;;;23.79;45.92
32197;BME280;18697;42.770;23.400;2023-07-29T04:21:19;95435.41;;;23.64;46.52
32197;BME280;18697;42.770;23.400;2023-07-29T04:23:45;95427.09;;;23.45;46.98
32197;BME280;18697;42.770;23.400;2023-07-29T04:26:10;95440.03;;;23.12;48.22
32197;BME280;18697;42.770;23.400;2023-07-29T04:28:36;95444.75;;;22.75;49.61
32197;BME280;18697;42.770;23.400;2023-07-29T04:31:01;95452.69;;;22.90;49.67
32197;BME280;18697;42.770;23.400;2023-07-29T04:33:27;95444.53;;;23.07;49.50
32197;BME280;18697;42.770;23.400;2023-07-29T04:35:52;95445.56;;;23.17;49.43
32197;BME280;18697;42.770;23.400;2023-07-29T04:38:17;95437.75;;;23.31;49.42
32197;BME280;18697;42.770;23.400;2023-07-29T04:40:43;95435.03;;;23.46;49.33
32197;BME280;18697;42.770;23.400;2023-07-29T04:43:08;95446.03;;;23.50;49.86
32197;BME280;18697;42.770;23.400;2023-07-29T04:45:33;95454.69;;;23.65;49.05
32197;BME280;18697;42.770;23.400;2023-07-29T04:47:59;95448.81;;;23.63;49.57
32197;BME280;18697;42.770;23.400;2023-07-29T04:50:24;95457.25;;;23.35;50.59
32197;BME280;18697;42.770;23.400;2023-07-29T04:52:50;95456.06;;;22.88;53.03
32197;BME280;18697;42.770;23.400;2023-07-29T04:55:15;95463.25;;;22.89;51.86
32197;BME280;18697;42.770;23.400;2023-07-29T04:57:40;95449.66;;;22.75;52.78
32197;BME280;18697;42.770;23.400;2023-07-29T05:00:06;95456.66;;;22.60;52.92
32197;BME280;18697;42.770;23.400;2023-07-29T05:02:32;95461.44;;;22.66;52.85
32197;BME280;18697;42.770;23.400;2023-07-29T05:04:57;95465.91;;;22.27;54.54
32197;BME280;18697;42.770;23.400;2023-07-29T05:07:22;95465.50;;;22.57;53.60
32197;BME280;18697;42.770;23.400;2023-07-29T05:09:48;95461.03;;;22.61;53.80
32197;BME280;18697;42.770;23.400;2023-07-29T05:12:13;95461.56;;;22.60;53.99
32197;BME280;18697;42.770;23.400;2023-07-29T05:14:39;95466.97;;;22.71;54.32
32197;BME280;18697;42.770;23.400;2023-07-29T05:17:05;95465.19;;;22.47;54.47
32197;BME280;18697;42.770;23.400;2023-07-29T05:19:30;95464.28;;;22.66;53.79
32197;BME280;18697;42.770;23.400;2023-07-29T05:21:56;95465.88;;;22.87;53.61
32197;BME280;18697;42.770;23.400;2023-07-29T05:24:23;95474.50;;;23.03;53.07
32197;BME280;18697;42.770;23.400;2023-07-29T05:26:48;95467.53;;;22.83;53.42
32197;BME280;18697;42.770;23.400;2023-07-29T05:29:14;95462.34;;;23.15;52.25
32197;BME280;18697;42.770;23.400;2023-07-29T05:31:39;95467.19;;;23.28;52.29
32197;BME280;18697;42.770;23.400;2023-07-29T05:34:05;95471.34;;;22.12;53.95
32197;BME280;18697;42.770;23.400;2023-07-29T05:36:30;95472.41;;;21.95;54.81
32197;BME280;18697;42.770;23.400;2023-07-29T05:38:55;95476.31;;;21.66;55.06
32197;BME280;18697;42.770;23.400;2023-07-29T05:41:21;95474.84;;;22.05;55.80
32197;BME280;18697;42.770;23.400;2023-07-29T05:43:46;95473.63;;;22.26;54.28
32197;BME280;18697;42.770;23.400;2023-07-29T05:46:12;95479.13;;;22.32;54.91
32197;BME280;18697;42.770;23.400;2023-07-29T05:48:37;95479.50;;;22.02;55.69
32197;BME280;18697;42.770;23.400;2023-07-29T05:51:03;95479.47;;;21.49;56.35
32197;BME280;18697;42.770;23.400;2023-07-29T05:53:30;95487.81;;;21.42;56.63
32197;BME280;18697;42.770;23.400;2023-07-29T05:55:56;95488.13;;;21.38;58.26
32197;BME280;18697;42.770;23.400;2023-07-29T05:58:21;95477.63;;;21.52;56.51
32197;BME280;18697;42.770;23.400;2023-07-29T06:00:47;95469.34;;;21.54;57.88
32197;BME280;18697;42.770;23.400;2023-07-29T06:03:12;95485.19;;;21.44;58.69
32197;BME280;18697;42.770;23.400;2023-07-29T06:05:38;95475.78;;;21.94;57.25
32197;BME280;18697;42.770;23.400;2023-07-29T06:08:04;95477.44;;;22.16;56.03
32197;BME280;18697;42.770;23.400;2023-07-29T06:10:29;95488.28;;;21.85;56.97
32197;BME280;18697;42.770;23.400;2023-07-29T06:12:54;95479.81;;;21.98;57.32
32197;BME280;18697;42.770;23.400;2023-07-29T06:15:20;95479.25;;;22.00;56.90
32197;BME280;18697;42.770;23.400;2023-07-29T06:17:47;95476.78;;;22.23;55.81
32197;BME280;18697;42.770;23.400;2023-07-29T06:20:13;95476.44;;;22.00;55.41
32197;BME280;18697;42.770;23.400;2023-07-29T06:22:38;95476.69;;;22.15;56.65
32197;BME280;18697;42.770;23.400;2023-07-29T06:25:04;95475.47;;;22.24;55.41
32197;BME280;18697;42.770;23.400;2023-07-29T06:27:29;95481.06;;;22.50;54.23
32197;BME280;18697;42.770;23.400;2023-07-29T06:29:54;95476.78;;;22.83;53.73
32197;BME280;18697;42.770;23.400;2023-07-29T06:32:20;95479.22;;;23.21;53.86
32197;BME280;18697;42.770;23.400;2023-07-29T06:34:45;95465.41;;;23.59;53.38
32197;BME280;18697;42.770;23.400;2023-07-29T06:37:11;95465.19;;;23.85;52.13
32197;BME280;18697;42.770;23.400;2023-07-29T06:39:36;95457.88;;;23.62;52.39
32197;BME280;18697;42.770;23.400;2023-07-29T06:42:01;95454.34;;;23.69;52.05
32197;BME280;18697;42.770;23.400;2023-07-29T06:44:27;95446.94;;;23.45;50.76
32197;BME280;18697;42.770;23.400;2023-07-29T06:46:52;95442.44;;;23.70;52.29
32197;BME280;18697;42.770;23.400;2023-07-29T06:49:18;95449.00;;;23.65;50.42
32197;BME280;18697;42.770;23.400;2023-07-29T06:51:43;95452.47;;;23.79;49.73
32197;BME280;18697;42.770;23.400;2023-07-29T06:54:09;95450.06;;;23.54;51.29
32197;BME280;18697;42.770;23.400;2023-07-29T06:56:34;95442.78;;;23.25;51.27
32197;BME280;18697;42.770;23.400;2023-07-29T06:58:59;95441.56;;;23.54;53.53
32197;BME280;18697;42.770;23.400;2023-07-29T07:01:25;95451.22;;;23.17;52.66
32197;BME280;18697;42.770;23.400;2023-07-29T07:03:50;95443.47;;;23.18;52.23
32197;BME280;18697;42.770;23.400;2023-07-29T07:06:20;95440.31;;;23.42;52.22
32197;BME280;18697;42.770;23.400;2023-07-29T07:08:45;95446.31;;;23.39;52.62
32197;BME280;18697;42.770;23.400;2023-07-29T07:11:11;95449.91;;;23.60;51.44
32197;BME280;18697;42.770;23.400;2023-07-29T07:13:36;95451.13;;;23.72;51.02
32197;BME280;18697;42.770;23.400;2023-07-29T07:16:01;95438.78;;;23.62;51.62
32197;BME280;18697;42.770;23.400;2023-07-29T07:18:27;95436.97;;;24.08;51.13
32197;BME280;18697;42.770;23.400;2023-07-29T07:20:52;95451.06;;;23.93;50.99
32197;BME280;18697;42.770;23.400;2023-07-29T07:23:18;95456.22;;;24.31;50.89
32197;BME280;18697;42.770;23.400;2023-07-29T07:25:44;95448.03;;;24.71;50.82
32197;BME280;18697;42.770;23.400;2023-07-29T07:28:10;95435.19;;;24.77;50.31
32197;BME280;18697;42.770;23.400;2023-07-29T07:30:39;95435.34;;;24.64;50.35
32197;BME280;18697;42.770;23.400;2023-07-29T07:33:06;95437.81;;;24.68;49.52
32197;BME280;18697;42.770;23.400;2023-07-29T07:35:31;95437.63;;;24.73;49.41
32197;BME280;18697;42.770;23.400;2023-07-29T07:37:57;95436.72;;;24.78;50.03
32197;BME280;18697;42.770;23.400;2023-07-29T07:40:23;95429.03;;;25.09;49.19
32197;BME280;18697;42.770;23.400;2023-07-29T07:42:49;95436.63;;;25.60;48.47
32197;BME280;18697;42.770;23.400;2023-07-29T07:45:14;95431.88;;;25.93;47.19
32197;BME280;18697;42.770;23.400;2023-07-29T07:47:40;95431.25;;;26.10;46.09
32197;BME280;18697;42.770;23.400;2023-07-29T07:50:05;95421.53;;;26.28;46.66
32197;BME280;18697;42.770;23.400;2023-07-29T07:52:31;95419.59;;;26.46;46.03
32197;BME280;18697;42.770;23.400;2023-07-29T07:54:56;95422.84;;;26.35;46.51
32197;BME280;18697;42.770;23.400;2023-07-29T07:57:21;95422.78;;;25.79;46.52
32197;BME280;18697;42.770;23.400;2023-07-29T07:59:47;95422.97;;;25.81;46.74
32197;BME280;18697;42.770;23.400;2023-07-29T08:02:12;95429.78;;;25.94;45.48
32197;BME280;18697;42.770;23.400;2023-07-29T08:04:38;95430.44;;;26.40;47.04
32197;BME280;18697;42.770;23.400;2023-07-29T08:07:03;95420.44;;;26.08;46.07
32197;BME280;18697;42.770;23.400;2023-07-29T08:09:29;95438.03;;;26.22;45.27
32197;BME280;18697;42.770;23.400;2023-07-29T08:11:54;95431.97;;;26.26;45.41
32197;BME280;18697;42.770;23.400;2023-07-29T08:14:20;95424.38;;;26.36;43.81
32197;BME280;18697;42.770;23.400;2023-07-29T08:16:45;95417.09;;;26.50;44.71
32197;BME280;18697;42.770;23.400;2023-07-29T08:19:10;95426.97;;;26.49;43.20
32197;BME280;18697;42.770;23.400;2023-07-29T08:21:36;95416.91;;;26.48;44.35
32197;BME280;18697;42.770;23.400;2023-07-29T08:24:01;95420.75;;;26.75;43.08
32197;BME280;18697;42.770;23.400;2023-07-29T08:26:27;95434.72;;;26.96;42.37
32197;BME280;18697;42.770;23.400;2023-07-29T08:28:52;95422.88;;;27.07;43.50
32197;BME280;18697;42.770;23.400;2023-07-29T08:31:17;95416.38;;;27.14;42.22
32197;BME280;18697;42.770;23.400;2023-07-29T08:33:43;95421.06;;;26.87;40.39
32197;BME280;18697;42.770;23.400;2023-07-29T08:36:08;95410.69;;;26.74;41.90
32197;BME280;18697;42.770;23.400;2023-07-29T08:38:34;95419.56;;;26.86;39.05
32197;BME280;18697;42.770;23.400;2023-07-29T08:43:44;95405.31;;;26.86;41.17
32197;BME280;18697;42.770;23.400;2023-07-29T08:46:12;95404.63;;;27.10;40.43
32197;BME280;18697;42.770;23.400;2023-07-29T08:48:42;95405.31;;;27.19;39.90
32197;BME280;18697;42.770;23.400;2023-07-29T08:51:10;95402.81;;;27.47;39.81
32197;BME280;18697;42.770;23.400;2023-07-29T08:53:37;95394.56;;;27.76;41.12
32197;BME280;18697;42.770;23.400;2023-07-29T08:56:04;95393.22;;;27.77;39.56
32197;BME280;18697;42.770;23.400;2023-07-29T08:58:31;95396.09;;;27.95;37.93
32197;BME280;18697;42.770;23.400;2023-07-29T09:00:56;95394.06;;;27.70;35.62
32197;BME280;18697;42.770;23.400;2023-07-29T09:03:22;95395.78;;;28.08;37.09
32197;BME280;18697;42.770;23.400;2023-07-29T09:05:47;95397.88;;;28.25;35.51
32197;BME280;18697;42.770;23.400;2023-07-29T09:08:13;95396.59;;;28.35;36.53
32197;BME280;18697;42.770;23.400;2023-07-29T09:10:39;95394.84;;;28.40;35.79
32197;BME280;18697;42.770;23.400;2023-07-29T09:13:05;95388.03;;;28.53;35.64
32197;BME280;18697;42.770;23.400;2023-07-29T09:15:34;95390.91;;;28.79;36.02
32197;BME280;18697;42.770;23.400;2023-07-29T09:18:08;95383.41;;;29.11;36.93
32197;BME280;18697;42.770;23.400;2023-07-29T09:20:34;95370.84;;;29.33;36.79
32197;BME280;18697;42.770;23.400;2023-07-29T09:23:00;95373.22;;;29.54;35.97
32197;BME280;18697;42.770;23.400;2023-07-29T09:25:29;95369.03;;;29.84;36.81
32197;BME280;18697;42.770;23.400;2023-07-29T09:27:59;95369.63;;;29.63;35.66
32197;BME280;18697;42.770;23.400;2023-07-29T09:30:26;95379.84;;;29.57;34.17
32197;BME280;18697;42.770;23.400;2023-07-29T09:32:56;95373.22;;;29.73;35.01
32197;BME280;18697;42.770;23.400;2023-07-29T09:35:22;95368.44;;;29.95;34.27
32197;BME280;18697;42.770;23.400;2023-07-29T09:37:48;95360.81;;;30.07;34.31
32197;BME280;18697;42.770;23.400;2023-07-29T09:40:14;95350.41;;;30.12;35.05
32197;BME280;18697;42.770;23.400;2023-07-29T09:42:47;95359.44;;;30.37;34.79
32197;BME280;18697;42.770;23.400;2023-07-29T09:45:22;95356.44;;;30.16;34.76
32197;BME280;18697;42.770;23.400;2023-07-29T09:47:48;95345.38;;;29.93;36.01
32197;BME280;18697;42.770;23.400;2023-07-29T09:50:14;95356.97;;;29.86;35.09
32197;BME280;18697;42.770;23.400;2023-07-29T09:52:41;95355.81;;;30.08;34.95
32197;BME280;18697;42.770;23.400;2023-07-29T09:55:06;95357.75;;;29.96;34.98
32197;BME280;18697;42.770;23.400;2023-07-29T09:57:32;95344.50;;;30.39;36.51
32197;BME280;18697;42.770;23.400;2023-07-29T09:59:58;95354.25;;;30.75;33.57
32197;BME280;18697;42.770;23.400;2023-07-29T10:02:24;95345.50;;;30.82;33.56
32197;BME280;18697;42.770;23.400;2023-07-29T10:04:53;95350.06;;;30.47;32.79
32197;BME280;18697;42.770;23.400;2023-07-29T10:07:20;95359.44;;;30.18;33.65
32197;BME280;18697;42.770;23.400;2023-07-29T10:09:46;95351.47;;;30.26;32.79
32197;BME280;18697;42.770;23.400;2023-07-29T10:12:13;95345.28;;;30.39;33.31
32197;BME280;18697;42.770;23.400;2023-07-29T10:14:38;95333.84;;;30.90;34.39
32197;BME280;18697;42.770;23.400;2023-07-29T10:17:07;95336.69;;;30.99;33.30
32197;BME280;18697;42.770;23.400;2023-07-29T10:19:34;95335.03;;;31.37;33.09
32197;BME280;18697;42.770;23.400;2023-07-29T10:22:00;95350.84;;;31.17;31.44
32197;BME280;18697;42.770;23.400;2023-07-29T10:24:30;95336.84;;;31.32;31.43
32197;BME280;18697;42.770;23.400;2023-07-29T10:26:59;95336.81;;;31.11;31.94
32197;BME280;18697;42.770;23.400;2023-07-29T10:29:30;95338.38;;;30.93;30.49
32197;BME280;18697;42.770;23.400;2023-07-29T10:31:57;95329.28;;;31.06;31.48
32197;BME280;18697;42.770;23.400;2023-07-29T10:34:23;95322.78;;;31.05;31.90
32197;BME280;18697;42.770;23.400;2023-07-29T10:36:50;95315.63;;;30.76;31.73
32197;BME280;18697;42.770;23.400;2023-07-29T10:39:16;95310.84;;;30.68;31.68
32197;BME280;18697;42.770;23.400;2023-07-29T10:42:01;95296.22;;;31.15;32.29
32197;BME280;18697;42.770;23.400;2023-07-29T10:47:19;95298.47;;;31.68;32.32
32197;BME280;18697;42.770;23.400;2023-07-29T10:49:55;95288.31;;;31.67;31.85
32197;BME280;18697;42.770;23.400;2023-07-29T10:52:39;95298.16;;;31.64;31.92
32197;BME280;18697;42.770;23.400;2023-07-29T10:55:26;95293.34;;;31.36;31.48
32197;BME280;18697;42.770;23.400;2023-07-29T10:57:52;95284.25;;;31.92;34.07
32197;BME280;18697;42.770;23.400;2023-07-29T11:00:30;95290.13;;;31.94;30.84
32197;BME280;18697;42.770;23.400;2023-07-29T11:02:59;95289.75;;;31.99;31.39
32197;BME280;18697;42.770;23.400;2023-07-29T11:05:46;95288.78;;;32.07;30.33
32197;BME280;18697;42.770;23.400;2023-07-29T11:08:30;95282.28;;;32.27;31.09
32197;BME280;18697;42.770;23.400;2023-07-29T11:13:28;95280.69;;;31.82;30.30
32197;BME280;18697;42.770;23.400;2023-07-29T11:15:56;95275.84;;;32.17;31.50
32197;BME280;18697;42.770;23.400;2023-07-29T11:18:30;95259.97;;;32.16;33.43
32197;BME280;18697;42.770;23.400;2023-07-29T11:20:56;95278.97;;;32.43;31.12
32197;BME280;18697;42.770;23.400;2023-07-29T11:23:34;95271.06;;;32.31;29.68
32197;BME280;18697;42.770;23.400;2023-07-29T11:26:00;95276.03;;;32.31;30.40
32197;BME280;18697;42.770;23.400;2023-07-29T11:28:28;95273.97;;;32.43;29.68
32197;BME280;18697;42.770;23.400;2023-07-29T11:30:57;95279.03;;;32.33;30.16
32197;BME280;18697;42.770;23.400;2023-07-29T11:33:26;95274.94;;;32.36;30.31
32197;BME280;18697;42.770;23.400;2023-07-29T11:35:53;95258.28;;;32.79;31.68
32197;BME280;18697;42.770;23.400;2023-07-29T11:38:20;95264.25;;;32.72;30.10
32197;BME280;18697;42.770;23.400;2023-07-29T11:41:00;95258.78;;;32.87;31.14
32197;BME280;18697;42.770;23.400;2023-07-29T11:43:26;95258.00;;;32.52;29.01
32197;BME280;18697;42.770;23.400;2023-07-29T11:45:52;95268.84;;;32.20;29.96
32197;BME280;18697;42.770;23.400;2023-07-29T11:48:26;95262.81;;;32.38;29.10
32197;BME280;18697;42.770;23.400;2023-07-29T11:50:53;95254.06;;;32.36;29.22
32197;BME280;18697;42.770;23.400;2023-07-29T11:53:18;95269.84;;;32.46;27.95
32197;BME280;18697;42.770;23.400;2023-07-29T11:55:44;95264.28;;;32.27;26.93
32197;BME280;18697;42.770;23.400;2023-07-29T11:58:09;95273.06;;;32.08;26.09
32197;BME280;18697;42.770;23.400;2023-07-29T12:00:35;95256.00;;;32.54;27.69
32197;BME280;18697;42.770;23.400;2023-07-29T12:03:01;95260.72;;;32.50;26.33
32197;BME280;18697;42.770;23.400;2023-07-29T12:05:27;95272.94;;;32.39;24.27
32197;BME280;18697;42.770;23.400;2023-07-29T12:07:52;95257.75;;;32.71;25.66
32197;BME280;18697;42.770;23.400;2023-07-29T12:10:18;95270.63;;;32.70;22.51
32197;BME280;18697;42.770;23.400;2023-07-29T12:12:48;95283.69;;;32.17;22.49
32197;BME280;18697;42.770;23.400;2023-07-29T12:15:23;95288.66;;;32.05;22.17
32197;BME280;18697;42.770;23.400;2023-07-29T12:17:48;95287.41;;;32.29;23.43
32197;BME280;18697;42.770;23.400;2023-07-29T12:20:14;95280.91;;;32.28;23.21
32197;BME280;18697;42.770;23.400;2023-07-29T12:22:39;95257.50;;;32.67;24.24
32197;BME280;18697;42.770;23.400;2023-07-29T12:25:05;95250.78;;;32.86;25.62
32197;BME280;18697;42.770;23.400;2023-07-29T12:27:31;95241.28;;;32.83;24.21
32197;BME280;18697;42.770;23.400;2023-07-29T12:29:57;95241.91;;;32.82;25.07
32197;BME280;18697;42.770;23.400;2023-07-29T12:32:25;95266.06;;;33.00;22.85
32197;BME280;18697;42.770;23.400;2023-07-29T12:34:53;95265.22;;;32.53;22.23
32197;BME280;18697;42.770;23.400;2023-07-29T12:37:19;95260.03;;;32.96;23.76
32197;BME280;18697;42.770;23.400;2023-07-29T12:39:44;95260.03;;;32.84;21.83
32197;BME280;18697;42.770;23.400;2023-07-29T12:42:10;95262.72;;;32.47;22.64
32197;BME280;18697;42.770;23.400;2023-07-29T12:44:36;95254.00;;;32.68;22.89
32197;BME280;18697;42.770;23.400;2023-07-29T12:47:03;95249.22;;;32.50;22.15
32197;BME280;18697;42.770;23.400;2023-07-29T12:49:29;95250.34;;;32.45;22.29
32197;BME280;18697;42.770;23.400;2023-07-29T12:51:56;95257.94;;;32.40;23.83
32197;BME280;18697;42.770;23.400;2023-07-29T12:54:22;95245.00;;;32.74;24.74
32197;BME280;18697;42.770;23.400;2023-07-29T12:56:47;95246.28;;;32.94;23.29
32197;BME280;18697;42.770;23.400;2023-07-29T12:59:12;95252.56;;;32.34;22.14
32197;BME280;18697;42.770;23.400;2023-07-29T13:01:38;95263.66;;;32.28;23.35